sensor_id;sensor_type;location;lat;lon;timestamp;temperature;humidity
6018;DHT22;3037;51.068;13.780;2022-09-09T00:02:10;15.20;99.90
6018;DHT22;3037;51.068;13.780;2022-09-09T00:04:58;15.20;99.90
6018;DHT22;3037;51.068;13.780;2022-09-09T00:07:41;15.10;99.90
6018;DHT22;3037;51.068;13.780;2022-09-09T00:10:20;15.40;99.90
6018;DHT22;3037;51.068;13.780;2022-09-09T00:15:19;15.10;99.90
6018;DHT22;3037;51.068;13.780;2022-09-09T00:17:56;15.10;99.90
6018;DHT22;3037;51.068;13.780;2022-09-09T00:20:32;15.10;99.90
6018;DHT22;3037;51.068;13.780;2022-09-09T00:28:26;15.10;99.90
6018;DHT22;3037;51.068;13.780;2022-09-09T00:30:53;15.10;99.90
6018;DHT22;3037;51.068;13.780;2022-09-09T00:33:22;15.00;99.90
6018;DHT22;3037;51.068;13.780;2022-09-09T00:35:50;14.70;99.90
6018;DHT22;3037;51.068;13.780;2022-09-09T00:38:21;14.90;99.90
6018;DHT22;3037;51.068;13.780;2022-09-09T00:40:55;15.20;99.90
6018;DHT22;3037;51.068;13.780;2022-09-09T00:43:32;15.00;99.90
6018;DHT22;3037;51.068;13.780;2022-09-09T00:49:09;15.00;99.90
6018;DHT22;3037;51.068;13.780;2022-09-09T00:55:14;14.90;99.90
6018;DHT22;3037;51.068;13.780;2022-09-09T00:57:41;14.90;99.90
6018;DHT22;3037;51.068;13.780;2022-09-09T01:00:20;14.80;99.90
6018;DHT22;3037;51.068;13.780;2022-09-09T01:05:39;14.60;99.90
6018;DHT22;3037;51.068;13.780;2022-09-09T01:08:20;14.60;99.90
6018;DHT22;3037;51.068;13.780;2022-09-09T01:10:52;14.70;99.90
6018;DHT22;3037;51.068;13.780;2022-09-09T01:13:30;14.50;99.90
6018;DHT22;3037;51.068;13.780;2022-09-09T01:16:04;14.40;99.90
6018;DHT22;3037;51.068;13.780;2022-09-09T01:18:36;14.70;99.90
6018;DHT22;3037;51.068;13.780;2022-09-09T01:21:33;14.40;99.90
6018;DHT22;3037;51.068;13.780;2022-09-09T01:24:20;14.50;99.90
6018;DHT22;3037;51.068;13.780;2022-09-09T01:26:49;14.80;99.90
6018;DHT22;3037;51.068;13.780;2022-09-09T01:29:19;14.60;99.90
6018;DHT22;3037;51.068;13.780;2022-09-09T01:34:18;14.40;99.90
6018;DHT22;3037;51.068;13.780;2022-09-09T01:36:57;14.20;99.90
6018;DHT22;3037;51.068;13.780;2022-09-09T01:39:23;14.50;99.90
6018;DHT22;3037;51.068;13.780;2022-09-09T01:41:49;14.40;99.90
6018;DHT22;3037;51.068;13.780;2022-09-09T01:44:16;14.30;99.90
6018;DHT22;3037;51.068;13.780;2022-09-09T01:46:43;14.30;99.90
6018;DHT22;3037;51.068;13.780;2022-09-09T01:49:09;13.90;99.90
6018;DHT22;3037;51.068;13.780;2022-09-09T01:51:37;13.80;99.90
6018;DHT22;3037;51.068;13.780;2022-09-09T01:54:04;14.10;99.90
6018;DHT22;3037;51.068;13.780;2022-09-09T01:57:01;14.20;99.90
6018;DHT22;3037;51.068;13.780;2022-09-09T01:59:44;14.30;99.90
6018;DHT22;3037;51.068;13.780;2022-09-09T02:02:13;14.10;99.90
6018;DHT22;3037;51.068;13.780;2022-09-09T02:04:45;14.30;99.90
6018;DHT22;3037;51.068;13.780;2022-09-09T02:07:41;14.40;99.90
6018;DHT22;3037;51.068;13.780;2022-09-09T02:10:39;14.20;99.90
6018;DHT22;3037;51.068;13.780;2022-09-09T02:13:11;14.30;99.90
6018;DHT22;3037;51.068;13.780;2022-09-09T02:18:19;14.20;99.90
6018;DHT22;3037;51.068;13.780;2022-09-09T02:20:48;13.90;99.90
6018;DHT22;3037;51.068;13.780;2022-09-09T02:23:14;14.10;99.90
6018;DHT22;3037;51.068;13.780;2022-09-09T02:25:41;13.90;99.90
6018;DHT22;3037;51.068;13.780;2022-09-09T02:28:10;13.90;99.90
6018;DHT22;3037;51.068;13.780;2022-09-09T02:30:40;14.00;99.90
6018;DHT22;3037;51.068;13.780;2022-09-09T02:33:07;13.90;99.90
6018;DHT22;3037;51.068;13.780;2022-09-09T02:35:35;14.00;99.90
6018;DHT22;3037;51.068;13.780;2022-09-09T02:38:08;13.80;99.90
6018;DHT22;3037;51.068;13.780;2022-09-09T02:40:35;13.70;99.90
6018;DHT22;3037;51.068;13.780;2022-09-09T02:43:01;13.70;99.90
6018;DHT22;3037;51.068;13.780;2022-09-09T02:45:36;13.70;99.90
6018;DHT22;3037;51.068;13.780;2022-09-09T02:48:20;13.50;99.90
6018;DHT22;3037;51.068;13.780;2022-09-09T02:56:21;13.50;99.90
6018;DHT22;3037;51.068;13.780;2022-09-09T02:58:49;14.00;99.90
6018;DHT22;3037;51.068;13.780;2022-09-09T03:01:16;13.80;99.90
6018;DHT22;3037;51.068;13.780;2022-09-09T03:03:42;13.40;99.90
6018;DHT22;3037;51.068;13.780;2022-09-09T03:06:09;13.40;99.90
6018;DHT22;3037;51.068;13.780;2022-09-09T03:08:37;13.40;99.90
6018;DHT22;3037;51.068;13.780;2022-09-09T03:11:03;13.50;99.90
6018;DHT22;3037;51.068;13.780;2022-09-09T03:13:28;13.30;99.90
6018;DHT22;3037;51.068;13.780;2022-09-09T03:15:54;13.30;99.90
6018;DHT22;3037;51.068;13.780;2022-09-09T03:18:20;13.40;99.90
6018;DHT22;3037;51.068;13.780;2022-09-09T03:20:46;13.30;99.90
6018;DHT22;3037;51.068;13.780;2022-09-09T03:23:16;13.40;99.90
6018;DHT22;3037;51.068;13.780;2022-09-09T03:25:49;13.40;99.90
6018;DHT22;3037;51.068;13.780;2022-09-09T03:28:15;13.30;99.90
6018;DHT22;3037;51.068;13.780;2022-09-09T03:30:40;13.20;99.90
6018;DHT22;3037;51.068;13.780;2022-09-09T03:33:06;13.10;99.90
6018;DHT22;3037;51.068;13.780;2022-09-09T03:35:31;13.00;99.90
6018;DHT22;3037;51.068;13.780;2022-09-09T03:37:57;13.20;99.90
6018;DHT22;3037;51.068;13.780;2022-09-09T03:40:22;13.20;99.90
6018;DHT22;3037;51.068;13.780;2022-09-09T03:42:48;13.30;99.90
6018;DHT22;3037;51.068;13.780;2022-09-09T03:45:14;13.30;99.90
6018;DHT22;3037;51.068;13.780;2022-09-09T03:47:39;13.30;99.90
6018;DHT22;3037;51.068;13.780;2022-09-09T03:50:06;13.40;99.90
6018;DHT22;3037;51.068;13.780;2022-09-09T03:52:38;13.30;99.90
6018;DHT22;3037;51.068;13.780;2022-09-09T03:55:05;13.30;99.90
6018;DHT22;3037;51.068;13.780;2022-09-09T03:57:31;13.40;99.90
6018;DHT22;3037;51.068;13.780;2022-09-09T03:59:57;13.30;99.90
6018;DHT22;3037;51.068;13.780;2022-09-09T04:02:23;13.30;99.90
6018;DHT22;3037;51.068;13.780;2022-09-09T04:04:48;13.30;99.90
6018;DHT22;3037;51.068;13.780;2022-09-09T04:07:14;13.20;99.90
6018;DHT22;3037;51.068;13.780;2022-09-09T04:09:40;13.30;99.90
6018;DHT22;3037;51.068;13.780;2022-09-09T04:12:05;13.20;99.90
6018;DHT22;3037;51.068;13.780;2022-09-09T04:14:31;13.30;99.90
6018;DHT22;3037;51.068;13.780;2022-09-09T04:16:57;13.40;99.90
6018;DHT22;3037;51.068;13.780;2022-09-09T04:19:24;13.40;99.90
6018;DHT22;3037;51.068;13.780;2022-09-09T04:21:50;13.40;99.90
6018;DHT22;3037;51.068;13.780;2022-09-09T04:24:17;13.30;99.90
6018;DHT22;3037;51.068;13.780;2022-09-09T04:26:42;13.20;99.90
6018;DHT22;3037;51.068;13.780;2022-09-09T04:29:08;13.10;99.90
6018;DHT22;3037;51.068;13.780;2022-09-09T04:31:34;13.20;99.90
6018;DHT22;3037;51.068;13.780;2022-09-09T04:33:59;13.30;99.90
6018;DHT22;3037;51.068;13.780;2022-09-09T04:36:31;13.30;99.90
6018;DHT22;3037;51.068;13.780;2022-09-09T04:38:57;13.50;99.90
6018;DHT22;3037;51.068;13.780;2022-09-09T04:41:22;13.50;99.90
6018;DHT22;3037;51.068;13.780;2022-09-09T04:43:49;13.50;99.90
6018;DHT22;3037;51.068;13.780;2022-09-09T04:46:14;13.50;99.90
6018;DHT22;3037;51.068;13.780;2022-09-09T04:48:42;13.60;99.90
6018;DHT22;3037;51.068;13.780;2022-09-09T04:51:11;13.50;99.90
6018;DHT22;3037;51.068;13.780;2022-09-09T04:53:38;13.50;99.90
6018;DHT22;3037;51.068;13.780;2022-09-09T04:56:09;13.50;99.90
6018;DHT22;3037;51.068;13.780;2022-09-09T04:58:35;13.60;99.90
6018;DHT22;3037;51.068;13.780;2022-09-09T05:01:09;13.70;99.90
6018;DHT22;3037;51.068;13.780;2022-09-09T05:03:35;13.70;99.90
6018;DHT22;3037;51.068;13.780;2022-09-09T05:06:08;13.80;99.90
6018;DHT22;3037;51.068;13.780;2022-09-09T05:08:36;13.80;99.90
6018;DHT22;3037;51.068;13.780;2022-09-09T05:11:03;14.00;99.90
6018;DHT22;3037;51.068;13.780;2022-09-09T05:13:29;13.90;99.90
6018;DHT22;3037;51.068;13.780;2022-09-09T05:15:56;14.00;99.90
6018;DHT22;3037;51.068;13.780;2022-09-09T05:18:22;14.10;99.90
6018;DHT22;3037;51.068;13.780;2022-09-09T05:20:48;14.30;99.90
6018;DHT22;3037;51.068;13.780;2022-09-09T05:23:14;14.30;99.90
6018;DHT22;3037;51.068;13.780;2022-09-09T05:25:40;14.40;99.90
6018;DHT22;3037;51.068;13.780;2022-09-09T05:28:06;14.40;99.90
6018;DHT22;3037;51.068;13.780;2022-09-09T05:30:33;14.40;99.90
6018;DHT22;3037;51.068;13.780;2022-09-09T05:32:59;14.50;99.90
6018;DHT22;3037;51.068;13.780;2022-09-09T05:35:25;14.70;99.90
6018;DHT22;3037;51.068;13.780;2022-09-09T05:37:50;14.90;99.90
6018;DHT22;3037;51.068;13.780;2022-09-09T05:40:16;15.00;99.90
6018;DHT22;3037;51.068;13.780;2022-09-09T05:42:41;15.20;99.90
6018;DHT22;3037;51.068;13.780;2022-09-09T05:45:08;15.30;99.90
6018;DHT22;3037;51.068;13.780;2022-09-09T05:47:34;15.40;99.90
6018;DHT22;3037;51.068;13.780;2022-09-09T05:50:01;15.50;99.90
6018;DHT22;3037;51.068;13.780;2022-09-09T05:52:26;15.50;99.90
6018;DHT22;3037;51.068;13.780;2022-09-09T05:54:52;15.60;99.90
6018;DHT22;3037;51.068;13.780;2022-09-09T05:57:19;15.60;99.90
6018;DHT22;3037;51.068;13.780;2022-09-09T05:59:45;15.80;99.90
6018;DHT22;3037;51.068;13.780;2022-09-09T06:02:11;15.90;99.90
6018;DHT22;3037;51.068;13.780;2022-09-09T06:04:37;15.80;99.90
6018;DHT22;3037;51.068;13.780;2022-09-09T06:07:04;16.10;99.90
6018;DHT22;3037;51.068;13.780;2022-09-09T06:09:30;16.20;99.90
6018;DHT22;3037;51.068;13.780;2022-09-09T06:11:56;16.60;99.90
6018;DHT22;3037;51.068;13.780;2022-09-09T06:14:23;16.70;99.90
6018;DHT22;3037;51.068;13.780;2022-09-09T06:16:50;16.70;99.90
6018;DHT22;3037;51.068;13.780;2022-09-09T06:19:16;16.50;99.90
6018;DHT22;3037;51.068;13.780;2022-09-09T06:21:42;16.50;99.90
6018;DHT22;3037;51.068;13.780;2022-09-09T06:24:08;16.90;99.90
6018;DHT22;3037;51.068;13.780;2022-09-09T06:26:36;17.40;99.90
6018;DHT22;3037;51.068;13.780;2022-09-09T06:29:03;17.40;99.90
6018;DHT22;3037;51.068;13.780;2022-09-09T06:31:31;17.70;99.90
6018;DHT22;3037;51.068;13.780;2022-09-09T06:33:57;17.90;99.90
6018;DHT22;3037;51.068;13.780;2022-09-09T06:36:29;18.30;99.90
6018;DHT22;3037;51.068;13.780;2022-09-09T06:38:55;18.10;99.90
6018;DHT22;3037;51.068;13.780;2022-09-09T06:41:22;18.60;99.90
6018;DHT22;3037;51.068;13.780;2022-09-09T06:43:48;18.60;99.90
6018;DHT22;3037;51.068;13.780;2022-09-09T06:48:44;18.90;99.90
6018;DHT22;3037;51.068;13.780;2022-09-09T06:51:15;20.20;99.90
6018;DHT22;3037;51.068;13.780;2022-09-09T06:53:42;21.30;99.90
6018;DHT22;3037;51.068;13.780;2022-09-09T06:58:38;23.10;99.90
6018;DHT22;3037;51.068;13.780;2022-09-09T07:01:08;22.30;99.90
6018;DHT22;3037;51.068;13.780;2022-09-09T07:03:34;21.50;99.90
6018;DHT22;3037;51.068;13.780;2022-09-09T07:06:00;20.90;99.90
6018;DHT22;3037;51.068;13.780;2022-09-09T07:08:26;22.70;99.90
6018;DHT22;3037;51.068;13.780;2022-09-09T07:10:52;26.00;90.90
6018;DHT22;3037;51.068;13.780;2022-09-09T07:13:26;25.30;78.30
6018;DHT22;3037;51.068;13.780;2022-09-09T07:15:52;23.00;93.80
6018;DHT22;3037;51.068;13.780;2022-09-09T07:18:19;22.80;96.30
6018;DHT22;3037;51.068;13.780;2022-09-09T07:20:54;22.50;96.10
6018;DHT22;3037;51.068;13.780;2022-09-09T07:23:21;23.60;94.60
6018;DHT22;3037;51.068;13.780;2022-09-09T07:25:47;24.90;92.40
6018;DHT22;3037;51.068;13.780;2022-09-09T07:28:13;27.50;72.00
6018;DHT22;3037;51.068;13.780;2022-09-09T07:30:39;28.50;53.10
6018;DHT22;3037;51.068;13.780;2022-09-09T07:33:05;30.40;40.30
6018;DHT22;3037;51.068;13.780;2022-09-09T07:35:31;28.50;32.40
6018;DHT22;3037;51.068;13.780;2022-09-09T07:37:56;26.00;41.60
6018;DHT22;3037;51.068;13.780;2022-09-09T07:40:23;24.30;48.90
6018;DHT22;3037;51.068;13.780;2022-09-09T07:42:49;27.30;42.70
6018;DHT22;3037;51.068;13.780;2022-09-09T07:45:15;29.50;33.60
6018;DHT22;3037;51.068;13.780;2022-09-09T07:47:40;31.50;22.80
6018;DHT22;3037;51.068;13.780;2022-09-09T07:50:08;31.30;18.60
6018;DHT22;3037;51.068;13.780;2022-09-09T07:52:34;32.40;11.00
6018;DHT22;3037;51.068;13.780;2022-09-09T07:55:00;31.90;11.90
6018;DHT22;3037;51.068;13.780;2022-09-09T07:57:28;29.00;15.20
6018;DHT22;3037;51.068;13.780;2022-09-09T07:59:55;29.10;15.10
6018;DHT22;3037;51.068;13.780;2022-09-09T08:02:22;30.50;15.10
6018;DHT22;3037;51.068;13.780;2022-09-09T08:04:48;33.70;11.40
6018;DHT22;3037;51.068;13.780;2022-09-09T08:07:14;35.40;13.00
6018;DHT22;3037;51.068;13.780;2022-09-09T08:09:41;33.20;14.80
6018;DHT22;3037;51.068;13.780;2022-09-09T08:12:07;30.00;21.70
6018;DHT22;3037;51.068;13.780;2022-09-09T08:14:34;30.00;22.90
6018;DHT22;3037;51.068;13.780;2022-09-09T08:17:00;28.80;23.60
6018;DHT22;3037;51.068;13.780;2022-09-09T08:19:25;27.00;26.90
6018;DHT22;3037;51.068;13.780;2022-09-09T08:21:51;26.40;30.60
6018;DHT22;3037;51.068;13.780;2022-09-09T08:24:17;25.30;37.20
6018;DHT22;3037;51.068;13.780;2022-09-09T08:26:48;24.80;42.00
6018;DHT22;3037;51.068;13.780;2022-09-09T08:29:15;24.30;51.40
6018;DHT22;3037;51.068;13.780;2022-09-09T08:31:48;24.10;58.00
6018;DHT22;3037;51.068;13.780;2022-09-09T08:34:15;24.10;62.40
6018;DHT22;3037;51.068;13.780;2022-09-09T08:36:42;24.00;64.70
6018;DHT22;3037;51.068;13.780;2022-09-09T08:39:10;24.20;69.70
6018;DHT22;3037;51.068;13.780;2022-09-09T08:44:56;26.50;59.10
6018;DHT22;3037;51.068;13.780;2022-09-09T08:47:53;24.30;72.90
6018;DHT22;3037;51.068;13.780;2022-09-09T08:50:36;24.00;79.60
6018;DHT22;3037;51.068;13.780;2022-09-09T08:53:29;24.20;87.40
6018;DHT22;3037;51.068;13.780;2022-09-09T08:56:02;24.00;87.10
6018;DHT22;3037;51.068;13.780;2022-09-09T08:58:33;26.80;82.30
6018;DHT22;3037;51.068;13.780;2022-09-09T09:04:00;28.50;61.30
6018;DHT22;3037;51.068;13.780;2022-09-09T09:11:40;25.90;68.10
6018;DHT22;3037;51.068;13.780;2022-09-09T09:14:20;24.80;74.00
6018;DHT22;3037;51.068;13.780;2022-09-09T09:17:02;24.00;82.90
6018;DHT22;3037;51.068;13.780;2022-09-09T09:19:30;23.60;91.30
6018;DHT22;3037;51.068;13.780;2022-09-09T09:22:06;23.20;96.60
6018;DHT22;3037;51.068;13.780;2022-09-09T09:24:56;22.80;99.90
6018;DHT22;3037;51.068;13.780;2022-09-09T09:32:43;21.80;99.90
6018;DHT22;3037;51.068;13.780;2022-09-09T09:35:13;21.80;1.00
6018;DHT22;3037;51.068;13.780;2022-09-09T09:37:40;21.00;99.90
6018;DHT22;3037;51.068;13.780;2022-09-09T09:40:17;20.40;99.90
6018;DHT22;3037;51.068;13.780;2022-09-09T09:42:57;20.20;99.90
6018;DHT22;3037;51.068;13.780;2022-09-09T09:48:05;20.20;99.90
6018;DHT22;3037;51.068;13.780;2022-09-09T09:50:32;20.20;99.90
6018;DHT22;3037;51.068;13.780;2022-09-09T09:53:01;20.40;99.90
6018;DHT22;3037;51.068;13.780;2022-09-09T09:55:29;20.60;99.90
6018;DHT22;3037;51.068;13.780;2022-09-09T09:58:05;20.90;1.00
6018;DHT22;3037;51.068;13.780;2022-09-09T10:00:32;21.10;99.90
6018;DHT22;3037;51.068;13.780;2022-09-09T10:03:00;22.00;99.90
6018;DHT22;3037;51.068;13.780;2022-09-09T10:05:28;23.30;99.90
6018;DHT22;3037;51.068;13.780;2022-09-09T10:08:11;23.60;99.90
6018;DHT22;3037;51.068;13.780;2022-09-09T10:13:18;26.00;99.90
6018;DHT22;3037;51.068;13.780;2022-09-09T10:15:49;27.30;99.90
6018;DHT22;3037;51.068;13.780;2022-09-09T10:21:03;28.00;90.80
6018;DHT22;3037;51.068;13.780;2022-09-09T10:32:46;28.80;83.10
6018;DHT22;3037;51.068;13.780;2022-09-09T10:38:34;29.20;85.50
6018;DHT22;3037;51.068;13.780;2022-09-09T10:41:13;30.30;74.60
6018;DHT22;3037;51.068;13.780;2022-09-09T10:44:13;29.60;63.10
6018;DHT22;3037;51.068;13.780;2022-09-09T10:47:08;29.30;60.00
6018;DHT22;3037;51.068;13.780;2022-09-09T10:53:00;28.40;59.60
6018;DHT22;3037;51.068;13.780;2022-09-09T10:55:41;28.20;58.30
6018;DHT22;3037;51.068;13.780;2022-09-09T10:58:30;28.10;61.10
6018;DHT22;3037;51.068;13.780;2022-09-09T11:01:03;29.20;54.70
6018;DHT22;3037;51.068;13.780;2022-09-09T11:03:33;28.50;55.20
6018;DHT22;3037;51.068;13.780;2022-09-09T11:06:06;29.40;54.50
6018;DHT22;3037;51.068;13.780;2022-09-09T11:08:38;28.40;49.10
6018;DHT22;3037;51.068;13.780;2022-09-09T11:11:21;29.60;48.80
6018;DHT22;3037;51.068;13.780;2022-09-09T11:14:02;28.00;56.50
6018;DHT22;3037;51.068;13.780;2022-09-09T11:16:50;27.00;57.70
6018;DHT22;3037;51.068;13.780;2022-09-09T11:19:40;25.80;67.00
6018;DHT22;3037;51.068;13.780;2022-09-09T11:24:39;25.00;73.50
6018;DHT22;3037;51.068;13.780;2022-09-09T11:27:14;24.50;82.10
6018;DHT22;3037;51.068;13.780;2022-09-09T11:38:44;23.50;98.80
6018;DHT22;3037;51.068;13.780;2022-09-09T11:41:11;23.30;99.90
6018;DHT22;3037;51.068;13.780;2022-09-09T11:43:43;23.20;99.70
6018;DHT22;3037;51.068;13.780;2022-09-09T11:46:10;23.50;99.40
6018;DHT22;3037;51.068;13.780;2022-09-09T11:48:40;23.90;98.90
6018;DHT22;3037;51.068;13.780;2022-09-09T11:51:13;24.40;96.30
6018;DHT22;3037;51.068;13.780;2022-09-09T11:54:47;23.90;95.50
6018;DHT22;3037;51.068;13.780;2022-09-09T11:56:47;23.40;96.20
6018;DHT22;3037;51.068;13.780;2022-09-09T11:59:30;22.80;97.60
6018;DHT22;3037;51.068;13.780;2022-09-09T12:02:02;22.60;99.90
6018;DHT22;3037;51.068;13.780;2022-09-09T12:04:32;22.90;99.90
6018;DHT22;3037;51.068;13.780;2022-09-09T12:07:22;22.90;99.90
6018;DHT22;3037;51.068;13.780;2022-09-09T12:09:52;22.80;99.90
6018;DHT22;3037;51.068;13.780;2022-09-09T12:14:57;24.40;99.90
6018;DHT22;3037;51.068;13.780;2022-09-09T12:17:26;24.80;99.90
6018;DHT22;3037;51.068;13.780;2022-09-09T12:20:08;24.70;99.90
6018;DHT22;3037;51.068;13.780;2022-09-09T12:22:46;24.40;99.90
6018;DHT22;3037;51.068;13.780;2022-09-09T12:25:35;24.20;99.90
6018;DHT22;3037;51.068;13.780;2022-09-09T12:28:17;24.50;99.90
6018;DHT22;3037;51.068;13.780;2022-09-09T12:31:06;25.10;99.90
6018;DHT22;3037;51.068;13.780;2022-09-09T12:33:39;25.00;99.90
6018;DHT22;3037;51.068;13.780;2022-09-09T12:36:13;24.80;99.90
6018;DHT22;3037;51.068;13.780;2022-09-09T12:38:42;24.30;99.90
6018;DHT22;3037;51.068;13.780;2022-09-09T12:41:19;24.40;99.90
6018;DHT22;3037;51.068;13.780;2022-09-09T12:43:45;24.20;99.90
6018;DHT22;3037;51.068;13.780;2022-09-09T12:46:36;24.70;99.90
6018;DHT22;3037;51.068;13.780;2022-09-09T12:49:03;25.20;99.90
6018;DHT22;3037;51.068;13.780;2022-09-09T12:51:30;25.60;99.90
6018;DHT22;3037;51.068;13.780;2022-09-09T12:53:57;24.90;99.90
6018;DHT22;3037;51.068;13.780;2022-09-09T12:56:25;24.60;99.90
6018;DHT22;3037;51.068;13.780;2022-09-09T12:58:53;25.50;99.90
6018;DHT22;3037;51.068;13.780;2022-09-09T13:01:26;25.50;98.70
6018;DHT22;3037;51.068;13.780;2022-09-09T13:03:52;25.00;97.70
6018;DHT22;3037;51.068;13.780;2022-09-09T13:06:32;25.20;95.90
6018;DHT22;3037;51.068;13.780;2022-09-09T13:09:00;25.20;95.80
6018;DHT22;3037;51.068;13.780;2022-09-09T13:11:39;25.30;94.30
6018;DHT22;3037;51.068;13.780;2022-09-09T13:14:35;25.00;94.50
6018;DHT22;3037;51.068;13.780;2022-09-09T13:17:02;24.40;96.40
6018;DHT22;3037;51.068;13.780;2022-09-09T13:19:38;24.00;97.70
6018;DHT22;3037;51.068;13.780;2022-09-09T13:22:34;24.10;97.60
6018;DHT22;3037;51.068;13.780;2022-09-09T13:25:02;24.10;97.00
6018;DHT22;3037;51.068;13.780;2022-09-09T13:27:33;24.00;97.30
6018;DHT22;3037;51.068;13.780;2022-09-09T13:30:00;24.30;97.90
6018;DHT22;3037;51.068;13.780;2022-09-09T13:32:26;25.30;94.70
6018;DHT22;3037;51.068;13.780;2022-09-09T13:34:59;25.10;94.50
6018;DHT22;3037;51.068;13.780;2022-09-09T13:37:36;24.80;94.60
6018;DHT22;3037;51.068;13.780;2022-09-09T13:40:03;24.60;93.40
6018;DHT22;3037;51.068;13.780;2022-09-09T13:42:32;24.50;97.30
6018;DHT22;3037;51.068;13.780;2022-09-09T13:45:00;24.60;95.10
6018;DHT22;3037;51.068;13.780;2022-09-09T13:47:33;24.40;93.90
6018;DHT22;3037;51.068;13.780;2022-09-09T13:50:20;24.20;98.00
6018;DHT22;3037;51.068;13.780;2022-09-09T13:52:47;24.00;96.50
6018;DHT22;3037;51.068;13.780;2022-09-09T13:55:13;24.00;98.80
6018;DHT22;3037;51.068;13.780;2022-09-09T13:57:38;24.10;99.90
6018;DHT22;3037;51.068;13.780;2022-09-09T14:00:05;24.20;98.60
6018;DHT22;3037;51.068;13.780;2022-09-09T14:02:32;24.10;99.90
6018;DHT22;3037;51.068;13.780;2022-09-09T14:04:58;24.00;99.90
6018;DHT22;3037;51.068;13.780;2022-09-09T14:07:24;24.00;99.90
6018;DHT22;3037;51.068;13.780;2022-09-09T14:09:50;23.80;99.90
6018;DHT22;3037;51.068;13.780;2022-09-09T14:12:17;23.60;99.00
6018;DHT22;3037;51.068;13.780;2022-09-09T14:14:43;23.50;98.40
6018;DHT22;3037;51.068;13.780;2022-09-09T14:17:09;23.70;99.50
6018;DHT22;3037;51.068;13.780;2022-09-09T14:19:35;23.80;99.90
6018;DHT22;3037;51.068;13.780;2022-09-09T14:22:02;23.70;99.90
6018;DHT22;3037;51.068;13.780;2022-09-09T14:24:27;23.80;99.90
6018;DHT22;3037;51.068;13.780;2022-09-09T14:26:53;23.80;99.90
6018;DHT22;3037;51.068;13.780;2022-09-09T14:29:19;23.80;99.90
6018;DHT22;3037;51.068;13.780;2022-09-09T14:31:45;23.90;97.50
6018;DHT22;3037;51.068;13.780;2022-09-09T14:34:10;24.10;97.20
6018;DHT22;3037;51.068;13.780;2022-09-09T14:36:36;24.10;97.70
6018;DHT22;3037;51.068;13.780;2022-09-09T14:39:03;24.20;97.90
6018;DHT22;3037;51.068;13.780;2022-09-09T14:41:29;24.30;98.50
6018;DHT22;3037;51.068;13.780;2022-09-09T14:43:55;24.40;98.90
6018;DHT22;3037;51.068;13.780;2022-09-09T14:46:21;24.20;98.50
6018;DHT22;3037;51.068;13.780;2022-09-09T14:48:47;24.20;97.70
6018;DHT22;3037;51.068;13.780;2022-09-09T14:51:22;24.50;98.00
6018;DHT22;3037;51.068;13.780;2022-09-09T14:53:48;24.50;98.20
6018;DHT22;3037;51.068;13.780;2022-09-09T14:56:18;24.60;98.40
6018;DHT22;3037;51.068;13.780;2022-09-09T14:58:44;24.50;98.30
6018;DHT22;3037;51.068;13.780;2022-09-09T15:01:12;24.40;97.30
6018;DHT22;3037;51.068;13.780;2022-09-09T15:03:39;24.10;97.70
6018;DHT22;3037;51.068;13.780;2022-09-09T15:06:11;23.90;98.30
6018;DHT22;3037;51.068;13.780;2022-09-09T15:08:39;24.20;98.00
6018;DHT22;3037;51.068;13.780;2022-09-09T15:11:06;24.20;98.10
6018;DHT22;3037;51.068;13.780;2022-09-09T15:13:36;24.10;97.30
6018;DHT22;3037;51.068;13.780;2022-09-09T15:16:06;23.90;97.10
6018;DHT22;3037;51.068;13.780;2022-09-09T15:18:32;23.90;98.00
6018;DHT22;3037;51.068;13.780;2022-09-09T15:21:04;23.80;99.00
6018;DHT22;3037;51.068;13.780;2022-09-09T15:23:34;23.70;99.90
6018;DHT22;3037;51.068;13.780;2022-09-09T15:26:01;23.80;99.90
6018;DHT22;3037;51.068;13.780;2022-09-09T15:28:27;23.70;99.60
6018;DHT22;3037;51.068;13.780;2022-09-09T15:30:53;23.50;99.30
6018;DHT22;3037;51.068;13.780;2022-09-09T15:33:20;23.60;99.90
6018;DHT22;3037;51.068;13.780;2022-09-09T15:35:46;23.70;99.90
6018;DHT22;3037;51.068;13.780;2022-09-09T15:38:12;23.60;99.90
6018;DHT22;3037;51.068;13.780;2022-09-09T15:40:42;23.40;99.90
6018;DHT22;3037;51.068;13.780;2022-09-09T15:43:08;22.90;99.90
6018;DHT22;3037;51.068;13.780;2022-09-09T15:45:35;22.50;99.90
6018;DHT22;3037;51.068;13.780;2022-09-09T15:48:01;22.30;99.90
6018;DHT22;3037;51.068;13.780;2022-09-09T15:50:27;22.20;99.90
6018;DHT22;3037;51.068;13.780;2022-09-09T15:52:55;22.20;99.90
6018;DHT22;3037;51.068;13.780;2022-09-09T15:55:20;21.80;99.90
6018;DHT22;3037;51.068;13.780;2022-09-09T15:57:46;21.70;99.90
6018;DHT22;3037;51.068;13.780;2022-09-09T16:00:13;21.70;99.90
6018;DHT22;3037;51.068;13.780;2022-09-09T16:02:39;21.50;99.90
6018;DHT22;3037;51.068;13.780;2022-09-09T16:05:05;21.40;99.90
6018;DHT22;3037;51.068;13.780;2022-09-09T16:07:31;21.50;99.90
6018;DHT22;3037;51.068;13.780;2022-09-09T16:09:57;21.50;99.90
6018;DHT22;3037;51.068;13.780;2022-09-09T16:12:22;21.30;99.90
6018;DHT22;3037;51.068;13.780;2022-09-09T16:14:48;21.30;99.90
6018;DHT22;3037;51.068;13.780;2022-09-09T16:17:13;21.40;99.90
6018;DHT22;3037;51.068;13.780;2022-09-09T16:19:40;21.20;99.90
6018;DHT22;3037;51.068;13.780;2022-09-09T16:22:06;21.20;99.90
6018;DHT22;3037;51.068;13.780;2022-09-09T16:24:32;21.10;99.90
6018;DHT22;3037;51.068;13.780;2022-09-09T16:26:58;21.00;99.90
6018;DHT22;3037;51.068;13.780;2022-09-09T16:29:24;21.00;99.90
6018;DHT22;3037;51.068;13.780;2022-09-09T16:31:52;21.10;99.90
6018;DHT22;3037;51.068;13.780;2022-09-09T16:34:18;21.10;99.90
6018;DHT22;3037;51.068;13.780;2022-09-09T16:36:44;21.10;99.90
6018;DHT22;3037;51.068;13.780;2022-09-09T16:39:13;21.00;99.90
6018;DHT22;3037;51.068;13.780;2022-09-09T16:41:40;21.00;99.90
6018;DHT22;3037;51.068;13.780;2022-09-09T16:44:08;20.50;99.90
6018;DHT22;3037;51.068;13.780;2022-09-09T16:46:36;20.70;99.90
6018;DHT22;3037;51.068;13.780;2022-09-09T16:49:05;20.70;99.90
6018;DHT22;3037;51.068;13.780;2022-09-09T16:51:39;20.60;99.90
6018;DHT22;3037;51.068;13.780;2022-09-09T16:54:07;20.50;99.90
6018;DHT22;3037;51.068;13.780;2022-09-09T16:56:35;20.40;99.90
6018;DHT22;3037;51.068;13.780;2022-09-09T16:59:05;20.30;99.90
6018;DHT22;3037;51.068;13.780;2022-09-09T17:01:34;20.20;99.90
6018;DHT22;3037;51.068;13.780;2022-09-09T17:04:04;20.00;99.90
6018;DHT22;3037;51.068;13.780;2022-09-09T17:06:31;20.20;99.90
6018;DHT22;3037;51.068;13.780;2022-09-09T17:09:00;20.40;99.90
6018;DHT22;3037;51.068;13.780;2022-09-09T17:11:26;20.20;99.90
6018;DHT22;3037;51.068;13.780;2022-09-09T17:13:53;20.30;99.90
6018;DHT22;3037;51.068;13.780;2022-09-09T17:16:21;20.10;99.90
6018;DHT22;3037;51.068;13.780;2022-09-09T17:18:51;20.10;99.90
6018;DHT22;3037;51.068;13.780;2022-09-09T17:21:20;19.90;99.90
6018;DHT22;3037;51.068;13.780;2022-09-09T17:23:46;19.70;99.90
6018;DHT22;3037;51.068;13.780;2022-09-09T17:26:14;19.70;99.90
6018;DHT22;3037;51.068;13.780;2022-09-09T17:28:41;19.50;99.90
6018;DHT22;3037;51.068;13.780;2022-09-09T17:31:09;19.50;99.90
6018;DHT22;3037;51.068;13.780;2022-09-09T17:33:37;19.40;99.90